createdAt,value
2023-02-16T00:00:42.652Z,4.48
2023-02-16T00:06:06.270Z,4.53
2023-02-16T00:11:36.277Z,4.58
2023-02-16T00:16:39.968Z,4.61
2023-02-16T00:21:43.407Z,4.65
2023-02-16T00:26:47.754Z,4.66
2023-02-16T00:31:52.352Z,4.66
2023-02-16T00:36:57.277Z,4.74
2023-02-16T00:42:11.409Z,4.72
2023-02-16T00:47:19.242Z,4.73
2023-02-16T00:52:22.763Z,4.76
2023-02-16T00:57:28.000Z,4.77
2023-02-16T01:02:31.404Z,4.78
2023-02-16T01:07:53.764Z,4.82
2023-02-16T01:12:57.278Z,4.82
2023-02-16T01:18:00.788Z,4.81
2023-02-16T01:23:04.626Z,4.80
2023-02-16T01:28:20.723Z,4.74
2023-02-16T01:33:24.134Z,4.65
2023-02-16T01:38:29.495Z,4.67
2023-02-16T01:43:47.050Z,4.71
2023-02-16T01:48:50.657Z,4.75
2023-02-16T01:54:16.195Z,4.80
2023-02-16T01:59:31.686Z,4.85
2023-02-16T02:05:06.023Z,4.86
2023-02-16T02:10:29.713Z,4.83
2023-02-16T02:15:34.558Z,4.74
2023-02-16T02:21:16.485Z,4.54
2023-02-16T02:26:57.788Z,4.50
2023-02-16T02:32:35.494Z,4.50
2023-02-16T02:37:57.353Z,4.51
2023-02-16T02:43:30.938Z,4.47
2023-02-16T02:48:35.500Z,4.36
2023-02-16T02:53:50.689Z,4.33
2023-02-16T02:59:21.344Z,4.34
2023-02-16T03:04:28.968Z,4.39
2023-02-16T03:09:32.465Z,4.42
2023-02-16T03:14:48.069Z,4.36
2023-02-16T03:20:11.554Z,4.32
2023-02-16T03:25:34.625Z,4.29
2023-02-16T03:30:38.335Z,4.30
2023-02-16T03:35:43.390Z,4.33
2023-02-16T03:40:50.216Z,4.36
2023-02-16T03:45:54.688Z,4.45
2023-02-16T03:50:58.237Z,4.46
2023-02-16T03:56:01.662Z,4.43
2023-02-16T04:01:05.659Z,4.37
2023-02-16T04:06:09.402Z,4.32
2023-02-16T04:11:31.456Z,4.32
2023-02-16T04:16:34.994Z,4.27
2023-02-16T04:21:38.602Z,4.20
2023-02-16T04:26:42.126Z,4.17
2023-02-16T04:31:45.774Z,4.19
2023-02-16T04:36:49.539Z,4.17
2023-02-16T04:41:53.055Z,4.13
2023-02-16T04:46:56.680Z,4.06
2023-02-16T04:52:01.411Z,3.97
2023-02-16T04:57:05.341Z,3.99
2023-02-16T05:02:08.860Z,4.01
2023-02-16T05:07:12.476Z,4.04
2023-02-16T05:12:35.043Z,4.03
2023-02-16T05:17:38.449Z,3.98
2023-02-16T05:22:43.814Z,3.93
2023-02-16T05:27:47.223Z,3.88
2023-02-16T05:32:50.736Z,3.87
2023-02-16T05:37:54.356Z,3.87
2023-02-16T05:42:58.802Z,3.92
2023-02-16T05:48:02.108Z,3.89
2023-02-16T05:53:05.626Z,3.84
2023-02-16T05:58:09.171Z,3.86
2023-02-16T06:03:12.655Z,3.90
2023-02-16T06:08:16.276Z,3.85
2023-02-16T06:13:21.432Z,3.84
2023-02-16T06:18:25.662Z,3.78
2023-02-16T06:23:28.977Z,3.70
2023-02-16T06:28:32.589Z,3.59
2023-02-16T06:33:36.308Z,3.62
2023-02-16T06:38:39.922Z,3.62
2023-02-16T06:43:43.445Z,3.61
2023-02-16T06:48:46.946Z,3.60
2023-02-16T06:53:50.675Z,3.58
2023-02-16T06:58:54.194Z,3.63
2023-02-16T07:03:58.442Z,3.71
2023-02-16T07:09:01.949Z,3.75
2023-02-16T07:14:05.452Z,3.70
2023-02-16T07:19:09.790Z,3.67
2023-02-16T07:24:13.205Z,3.54
2023-02-16T07:29:16.919Z,3.51
2023-02-16T07:34:21.706Z,3.57
2023-02-16T07:39:25.855Z,3.64
2023-02-16T07:44:29.413Z,3.69
2023-02-16T07:49:33.025Z,3.78
2023-02-16T07:54:36.747Z,3.88
2023-02-16T07:59:40.263Z,3.96
2023-02-16T08:04:44.089Z,4.03
2023-02-16T08:09:48.014Z,4.21
2023-02-16T08:14:51.428Z,4.32
2023-02-16T08:19:55.046Z,4.38
2023-02-16T08:25:00.191Z,4.52
2023-02-16T08:30:04.359Z,4.67
2023-02-16T08:35:08.772Z,4.73
2023-02-16T08:40:12.492Z,4.74
2023-02-16T08:45:16.414Z,4.70
2023-02-16T08:50:20.181Z,4.72
2023-02-16T08:55:24.434Z,4.69
2023-02-16T09:00:38.836Z,4.65
2023-02-16T09:05:42.655Z,4.62
2023-02-16T09:10:46.382Z,4.56
2023-02-16T09:15:49.894Z,4.57
2023-02-16T09:20:53.410Z,4.57
2023-02-16T09:25:57.127Z,4.55
2023-02-16T09:31:00.981Z,4.53
2023-02-16T09:36:07.142Z,4.47
2023-02-16T09:41:37.163Z,4.51
2023-02-16T09:46:42.903Z,4.55
2023-02-16T09:51:46.447Z,4.60
2023-02-16T09:56:57.450Z,4.69
2023-02-16T10:02:44.284Z,4.81
2023-02-16T10:08:08.270Z,5.00
2023-02-16T10:13:21.409Z,5.11
2023-02-16T10:18:33.616Z,5.10
2023-02-16T10:23:48.472Z,5.17
2023-02-16T10:28:58.066Z,5.27
2023-02-16T10:34:27.494Z,5.40
2023-02-16T10:39:52.922Z,5.41
2023-02-16T10:45:19.682Z,5.42
2023-02-16T10:50:26.476Z,5.35
2023-02-16T10:55:30.096Z,5.18
2023-02-16T11:00:52.041Z,5.10
2023-02-16T11:05:55.664Z,5.15
2023-02-16T11:11:11.569Z,5.02
2023-02-16T11:16:24.594Z,5.03
2023-02-16T11:21:49.164Z,4.85
2023-02-16T11:27:07.178Z,4.76
2023-02-16T11:32:13.249Z,4.77
2023-02-16T11:37:22.194Z,4.71
2023-02-16T11:42:35.124Z,4.83
2023-02-16T11:47:42.130Z,5.06
2023-02-16T11:52:49.707Z,5.20
2023-02-16T11:57:54.236Z,5.21
2023-02-16T12:03:19.264Z,5.30
2023-02-16T12:08:35.504Z,5.47
2023-02-16T12:13:48.948Z,5.54
2023-02-16T12:19:17.041Z,5.58
2023-02-16T12:24:32.227Z,5.61
2023-02-16T12:29:45.269Z,5.52
2023-02-16T12:35:13.052Z,5.58
2023-02-16T12:40:16.364Z,5.79
2023-02-16T12:45:23.664Z,5.99
2023-02-16T12:50:29.435Z,6.17
2023-02-16T12:55:54.527Z,6.26
2023-02-16T13:01:04.318Z,6.35
2023-02-16T13:06:18.585Z,6.44
2023-02-16T13:11:29.086Z,6.77
2023-02-16T13:16:39.099Z,6.96
2023-02-16T13:21:54.551Z,7.26
2023-02-16T13:27:16.489Z,7.44
2023-02-16T13:32:33.516Z,7.62
2023-02-16T13:37:58.947Z,7.75
2023-02-16T13:43:24.369Z,7.73
2023-02-16T13:48:34.235Z,7.70
2023-02-16T13:53:40.246Z,7.66
2023-02-16T13:58:44.131Z,7.69
2023-02-16T14:03:47.954Z,7.66
2023-02-16T14:09:16.292Z,7.71
2023-02-16T14:14:34.615Z,7.74
2023-02-16T14:19:38.137Z,7.79
2023-02-16T14:24:43.590Z,7.94
2023-02-16T14:30:04.022Z,7.81
2023-02-16T14:35:08.355Z,7.61
2023-02-16T14:40:11.798Z,7.33
2023-02-16T14:45:19.734Z,7.14
2023-02-16T14:50:23.491Z,6.90
2023-02-16T14:55:55.373Z,6.80
2023-02-16T15:01:16.656Z,6.62
2023-02-16T15:06:38.862Z,6.38
2023-02-16T15:12:09.353Z,6.31
2023-02-16T15:17:28.798Z,6.13
2023-02-16T15:22:32.315Z,5.87
2023-02-16T15:27:35.832Z,5.59
2023-02-16T15:32:39.849Z,5.31
2023-02-16T15:37:43.367Z,5.15
2023-02-16T15:42:47.302Z,5.02
2023-02-16T15:47:50.706Z,4.86
2023-02-16T15:52:54.309Z,4.66
2023-02-16T15:57:59.170Z,4.49
2023-02-16T16:03:05.853Z,4.27
2023-02-16T16:08:27.471Z,4.13
2023-02-16T16:13:32.340Z,4.05
2023-02-16T16:18:39.215Z,4.00
2023-02-16T16:23:56.767Z,3.91
2023-02-16T16:29:00.507Z,3.84
2023-02-16T16:34:07.453Z,3.75
2023-02-16T16:39:25.739Z,3.68
2023-02-16T16:44:36.454Z,3.65
2023-02-16T16:49:50.718Z,3.60
2023-02-16T16:54:54.128Z,3.52
2023-02-16T16:59:57.643Z,3.48
2023-02-16T17:05:00.953Z,3.45
2023-02-16T17:10:05.490Z,3.41
2023-02-16T17:15:23.443Z,3.31
2023-02-16T17:20:26.855Z,3.24
2023-02-16T17:25:32.558Z,3.24
2023-02-16T17:30:36.754Z,3.26
2023-02-16T17:35:43.085Z,3.28
2023-02-16T17:40:51.786Z,3.32
2023-02-16T17:45:59.741Z,3.39
2023-02-16T17:51:03.313Z,3.44
2023-02-16T17:56:09.898Z,3.46
2023-02-16T18:01:15.306Z,3.51
2023-02-16T18:06:22.265Z,3.57
2023-02-16T18:11:25.971Z,3.51
2023-02-16T18:16:29.313Z,3.48
2023-02-16T18:21:32.695Z,3.47
2023-02-16T18:26:36.415Z,3.55
2023-02-16T18:31:43.040Z,3.61
2023-02-16T18:36:46.533Z,3.70
2023-02-16T18:41:49.954Z,3.80
2023-02-16T18:46:53.354Z,3.90
2023-02-16T18:51:57.995Z,3.95
2023-02-16T18:57:01.307Z,4.01
2023-02-16T19:02:05.335Z,4.01
2023-02-16T19:07:09.369Z,4.02
2023-02-16T19:12:12.780Z,4.02
2023-02-16T19:17:16.498Z,3.98
2023-02-16T19:22:19.909Z,3.99
2023-02-16T19:27:23.631Z,3.99
2023-02-16T19:32:27.042Z,4.02
2023-02-16T19:37:30.766Z,4.07
2023-02-16T19:42:34.274Z,4.09
2023-02-16T19:47:37.585Z,4.12
2023-02-16T19:52:40.995Z,4.17
2023-02-16T19:57:44.418Z,4.22
2023-02-16T20:02:47.978Z,4.29
2023-02-16T20:07:51.743Z,4.35
2023-02-16T20:12:55.158Z,4.40
2023-02-16T20:17:58.573Z,4.45
2023-02-16T20:23:01.985Z,4.49
2023-02-16T20:28:05.565Z,4.57
2023-02-16T20:33:09.019Z,4.66
2023-02-16T20:38:12.848Z,4.78
2023-02-16T20:43:19.327Z,4.90
2023-02-16T20:48:23.659Z,4.98
2023-02-16T20:53:29.015Z,5.05
2023-02-16T20:58:33.933Z,5.12
2023-02-16T21:03:37.380Z,5.17
2023-02-16T21:08:40.794Z,5.24
2023-02-16T21:13:44.822Z,5.31
2023-02-16T21:18:48.640Z,5.38
2023-02-16T21:23:54.350Z,5.44
2023-02-16T21:28:58.243Z,5.47
2023-02-16T21:34:01.568Z,5.48
2023-02-16T21:39:05.693Z,5.50
2023-02-16T21:44:15.848Z,5.50
2023-02-16T21:49:20.595Z,5.56
2023-02-16T21:54:43.969Z,5.57
2023-02-16T21:59:47.389Z,5.56
2023-02-16T22:04:50.796Z,5.56
2023-02-16T22:09:54.312Z,5.55
2023-02-16T22:14:57.826Z,5.55
2023-02-16T22:20:01.854Z,5.55
2023-02-16T22:25:05.676Z,5.56
2023-02-16T22:30:09.795Z,5.57
2023-02-16T22:35:13.353Z,5.61
2023-02-16T22:40:17.256Z,5.64
2023-02-16T22:45:20.481Z,5.69
2023-02-16T22:50:24.086Z,5.68
2023-02-16T22:55:27.598Z,5.70
2023-02-16T23:00:31.327Z,5.71
2023-02-16T23:05:34.625Z,5.70
2023-02-16T23:10:39.485Z,5.66
2023-02-16T23:15:42.859Z,5.67
2023-02-16T23:20:46.301Z,5.65
2023-02-16T23:25:50.224Z,5.65
2023-02-16T23:30:57.547Z,5.67
2023-02-16T23:36:01.044Z,5.66
2023-02-16T23:41:07.679Z,5.69
2023-02-16T23:46:11.726Z,5.68
2023-02-16T23:51:15.275Z,5.67
2023-02-16T23:56:21.939Z,5.68
